Observation data for Amherst on 11/18/2019      Previous  Date       Current Mesonet Observations  Soil Data  Daily Summary Page  Observations in Plain Language
KAMH 180600Z 21006KT 04/M00 A3008 RMK A01 T00441001  RH  073%=      5-min Rain = 0
KAMH 180605Z 22006KT 05/M00 A3008 RMK A01 T00471001  RH  072%=      5-min Rain = 0
KAMH 180610Z 23007KT 05/M00 A3008 RMK A01 T00471002  RH  071%=      5-min Rain = 0
KAMH 180615Z 22006KT 05/M00 A3007 RMK A01 T00471002  RH  071%=      5-min Rain = 0
KAMH 180620Z 22005KT 05/M00 A3007 RMK A01 T00471003  RH  071%=      5-min Rain = 0
KAMH 180625Z 22006KT 05/M00 A3007 RMK A01 T00451004  RH  072%=      5-min Rain = 0
KAMH 180630Z 22007KT 05/M00 A3006 RMK A01 T00461003  RH  072%=      5-min Rain = 0
KAMH 180635Z 22007KT 05/M00 A3006 RMK A01 T00481002  RH  071%=      5-min Rain = 0
KAMH 180640Z 22006KT 05/M00 A3006 RMK A01 T00481002  RH  071%=      5-min Rain = 0
KAMH 180645Z 22006KT 05/M00 A3006 RMK A01 T00481003  RH  071%=      5-min Rain = 0
KAMH 180650Z 22007KT 05/M00 A3006 RMK A01 T00451004  RH  071%=      5-min Rain = 0
KAMH 180655Z 22007KT 04/M00 A3005 RMK A01 T00441004  RH  072%=      5-min Rain = 0
KAMH 180700Z 22006KT 04/M01 A3005 RMK A01 T00431005  RH  072%=      5-min Rain = 0
KAMH 180705Z 22006KT 04/M01 A3005 RMK A01 T00411006  RH  072%=      5-min Rain = 0
KAMH 180710Z 23006KT 04/M01 A3006 RMK A01 T00391007  RH  073%=      5-min Rain = 0
KAMH 180715Z 23006KT 04/M01 A3005 RMK A01 T00371008  RH  074%=      5-min Rain = 0
KAMH 180720Z 22006KT 04/M01 A3005 RMK A01 T00361007  RH  074%=      5-min Rain = 0
KAMH 180725Z 22005KT 04/M01 A3005 RMK A01 T00361007  RH  074%=      5-min Rain = 0
KAMH 180730Z 22005KT 04/M01 A3005 RMK A01 T00351008  RH  074%=      5-min Rain = 0
KAMH 180735Z 23005KT 03/M01 A3005 RMK A01 T00341008  RH  075%=      5-min Rain = 0
KAMH 180740Z 22005KT 03/M01 A3004 RMK A01 T00321009  RH  075%=      5-min Rain = 0
KAMH 180745Z 22004KT 03/M01 A3004 RMK A01 T00321008  RH  076%=      5-min Rain = 0
KAMH 180750Z 22004KT 03/M01 A3004 RMK A01 T00321007  RH  076%=      5-min Rain = 0
KAMH 180755Z 23005KT 03/M01 A3004 RMK A01 T00311007  RH  077%=      5-min Rain = 0
KAMH 180800Z 22005KT 03/M01 A3004 RMK A01 T00301008  RH  077%=      5-min Rain = 0
KAMH 180805Z 23005KT 03/M01 A3004 RMK A01 T00291008  RH  077%=      5-min Rain = 0
KAMH 180810Z 23005KT 03/M01 A3003 RMK A01 T00301008  RH  077%=      5-min Rain = 0
KAMH 180815Z 23006KT 03/M01 A3003 RMK A01 T00301007  RH  077%=      5-min Rain = 0
KAMH 180820Z 24006KT 03/M01 A3003 RMK A01 T00321006  RH  077%=      5-min Rain = 0
KAMH 180825Z 24006KT 03/M01 A3003 RMK A01 T00331007  RH  076%=      5-min Rain = 0
KAMH 180830Z 24007KT 03/M01 A3003 RMK A01 T00331006  RH  076%=      5-min Rain = 0
KAMH 180835Z 24006KT 04/M01 A3003 RMK A01 T00351005  RH  076%=      5-min Rain = 0
KAMH 180840Z 25007KT 04/M01 A3003 RMK A01 T00351006  RH  075%=      5-min Rain = 0
KAMH 180845Z 25007KT 03/M01 A3003 RMK A01 T00331007  RH  076%=      5-min Rain = 0
KAMH 180850Z 25007KT 03/M01 A3003 RMK A01 T00301008  RH  077%=      5-min Rain = 0
KAMH 180855Z 25007KT 03/M01 A3002 RMK A01 T00281008  RH  078%=      5-min Rain = 0
KAMH 180900Z 25007KT 03/M01 A3002 RMK A01 T00281007  RH  079%=      5-min Rain = 0
KAMH 180905Z 25008KT 03/M01 A3002 RMK A01 T00281007  RH  079%=      5-min Rain = 0
KAMH 180910Z 25008KT 03/M01 A3002 RMK A01 T00271007  RH  079%=      5-min Rain = 0
KAMH 180915Z 25007KT 03/M01 A3002 RMK A01 T00281007  RH  079%=      5-min Rain = 0
KAMH 180920Z 25008KT 03/M01 A3001 RMK A01 T00271007  RH  079%=      5-min Rain = 0
KAMH 180925Z 24008KT 03/M01 A3001 RMK A01 T00301006  RH  078%=      5-min Rain = 0
KAMH 180930Z 24008KT 03/M01 A3001 RMK A01 T00321006  RH  077%=      5-min Rain = 0
KAMH 180935Z 24008KT 03/M01 A3001 RMK A01 T00331006  RH  076%=      5-min Rain = 0
KAMH 180940Z 24007KT 03/M01 A30 RMK A01 T00321007  RH  076%=      5-min Rain = 0
KAMH 180945Z 24007KT 03/M01 A30 RMK A01 T00301008  RH  077%=      5-min Rain = 0
KAMH 180950Z 24008KT 03/M01 A30 RMK A01 T00291008  RH  078%=      5-min Rain = 0
KAMH 180955Z 24007KT 03/M01 A30 RMK A01 T00291008  RH  078%=      5-min Rain = 0
KAMH 181000Z 24007KT 03/M01 A30 RMK A01 T00251011  RH  078%=      5-min Rain = 0
KAMH 181005Z 25008KT 03/M01 A30 RMK A01 T00251009  RH  079%=      5-min Rain = 0
KAMH 181010Z 25008KT 03/M01 A2999 RMK A01 T00271008  RH  079%=      5-min Rain = 0
KAMH 181015Z 25008KT 03/M01 A2999 RMK A01 T00261010  RH  078%=      5-min Rain = 0
KAMH 181020Z 24008KT 02/M01 A2999 RMK A01 T00241010  RH  079%=      5-min Rain = 0
KAMH 181025Z 24007KT 03/M01 A2999 RMK A01 T00261009  RH  079%=      5-min Rain = 0
KAMH 181030Z 24007KT 03/M01 A2998 RMK A01 T00271009  RH  078%=      5-min Rain = 0
KAMH 181035Z 25007KT 03/M01 A2999 RMK A01 T00271010  RH  078%=      5-min Rain = 0
KAMH 181040Z 25007KT 02/M01 A2999 RMK A01 T00221012  RH  079%=      5-min Rain = 0
KAMH 181045Z 25008KT 02/M01 A2999 RMK A01 T00211011  RH  080%=      5-min Rain = 0
KAMH 181050Z 24007KT 02/M01 A2999 RMK A01 T00231010  RH  080%=      5-min Rain = 0
KAMH 181055Z 24007KT 03/M01 A2999 RMK A01 T00261008  RH  079%=      5-min Rain = 0
KAMH 181100Z 24006KT 03/M01 A2998 RMK A01 T00281008  RH  078%=      5-min Rain = 0
KAMH 181105Z 24006KT 03/M01 A2998 RMK A01 T00281009  RH  078%=      5-min Rain = 0
KAMH 181110Z 24006KT 03/M01 A2998 RMK A01 T00251010  RH  078%=      5-min Rain = 0
KAMH 181115Z 24007KT 03/M01 A2998 RMK A01 T00251009  RH  079%=      5-min Rain = 0
KAMH 181120Z 24007KT 03/M01 A2998 RMK A01 T00271008  RH  078%=      5-min Rain = 0
KAMH 181125Z 24007KT 03/M01 A2998 RMK A01 T00261009  RH  078%=      5-min Rain = 0
KAMH 181130Z 23007KT 03/M01 A2998 RMK A01 T00251009  RH  079%=      5-min Rain = 0
KAMH 181135Z 24006KT 03/M01 A2997 RMK A01 T00261008  RH  079%=      5-min Rain = 0
KAMH 181140Z 24006KT 03/M01 A2997 RMK A01 T00261009  RH  079%=      5-min Rain = 0
KAMH 181145Z 24006KT 02/M01 A2997 RMK A01 T00241009  RH  079%=      5-min Rain = 0
KAMH 181150Z 24006KT 02/M01 A2997 RMK A01 T00241009  RH  080%=      5-min Rain = 0
KAMH 181155Z 25007KT 02/M01 A2998 RMK A01 T00231009  RH  080%=      5-min Rain = 0
KAMH 181200Z 25007KT 02/M01 A2997 RMK A01 T00211009  RH  081%=      5-min Rain = 0
KAMH 181205Z 24008KT 02/M01 A2997 RMK A01 T00231008  RH  081%=      5-min Rain = 0
KAMH 181210Z 24008KT 03/M01 A2997 RMK A01 T00261007  RH  079%=      5-min Rain = 0
KAMH 181215Z 24008KT 03/M01 A2996 RMK A01 T00281007  RH  079%=      5-min Rain = 0
KAMH 181220Z 24008KT 03/M01 A2996 RMK A01 T00301006  RH  078%=      5-min Rain = 0
KAMH 181225Z 25008KT 03/M01 A2997 RMK A01 T00311006  RH  078%=      5-min Rain = 0
KAMH 181230Z 25008KT 03/M01 A2997 RMK A01 T00311007  RH  077%=      5-min Rain = 0
KAMH 181235Z 25007KT 03/M01 A2998 RMK A01 T00311006  RH  077%=      5-min Rain = 0
KAMH 181240Z 26006KT 03/M01 A2998 RMK A01 T00291007  RH  078%=      5-min Rain = 0
KAMH 181245Z 27005KT 03/M01 A2998 RMK A01 T00261008  RH  079%=      5-min Rain = 0
KAMH 181250Z 27005KT 02/M01 A2998 RMK A01 T00221009  RH  081%=      5-min Rain = 0
KAMH 181255Z 28004KT 02/M01 A2998 RMK A01 T00191010  RH  082%=      5-min Rain = 0
KAMH 181300Z 31003KT 02/M01 A2998 RMK A01 T00161011  RH  083%=      5-min Rain = 0
KAMH 181305Z 31002KT 01/M01 A2998 RMK A01 T00141013  RH  083%=      5-min Rain = 0
KAMH 181310Z 29002KT 01/M01 A2998 RMK A01 T00121013  RH  084%=      5-min Rain = 0
KAMH 181315Z 27003KT 01/M01 A2998 RMK A01 T00141011  RH  085%=      5-min Rain = 0
KAMH 181320Z 28004KT 01/M01 A2998 RMK A01 T00131014  RH  083%=      5-min Rain = 0
KAMH 181325Z 28004KT 01/M02 A2998 RMK A01 T00091018  RH  083%=      5-min Rain = 0
KAMH 181330Z 29004KT 01/M02 A2999 RMK A01 T00081017  RH  084%=      5-min Rain = 0
KAMH 181335Z 26005KT 01/M02 A2998 RMK A01 T00071017  RH  085%=      5-min Rain = 0
KAMH 181340Z 25006KT 01/M02 A2998 RMK A01 T00091015  RH  085%=      5-min Rain = 0
KAMH 181345Z 25006KT 02/M01 A2998 RMK A01 T00161009  RH  084%=      5-min Rain = 0
KAMH 181350Z 25006KT 02/M01 A2998 RMK A01 T00211008  RH  082%=      5-min Rain = 0
KAMH 181355Z 25006KT 02/M01 A2998 RMK A01 T00241007  RH  081%=      5-min Rain = 0
KAMH 181400Z 25006KT 03/M01 A2998 RMK A01 T00251008  RH  079%=      5-min Rain = 0
KAMH 181405Z 26005KT 03/M01 A2999 RMK A01 T00271008  RH  079%=      5-min Rain = 0
KAMH 181410Z 27004KT 02/M01 A2999 RMK A01 T00231010  RH  079%=      5-min Rain = 0
KAMH 181415Z 28004KT 03/M01 A2999 RMK A01 T00261006  RH  081%=      5-min Rain = 0
KAMH 181420Z 28004KT 03/M00 A2999 RMK A01 T00311003  RH  079%=      5-min Rain = 0
KAMH 181425Z 27005KT 04/00 A2999 RMK A01 T003700-0  RH  077%=      5-min Rain = 0
KAMH 181430Z 25006KT 04/00 A2999 RMK A01 T00430001  RH  075%=      5-min Rain = 0
KAMH 181435Z 26006KT 05/00 A2999 RMK A01 T00480003  RH  074%=      5-min Rain = 0
KAMH 181440Z 26006KT 06/01 A2999 RMK A01 T00550006  RH  072%=      5-min Rain = 0
KAMH 181445Z 26007KT 06/01 A2999 RMK A01 T00620009  RH  069%=      5-min Rain = 0
KAMH 181450Z 26009KT 07/01 A2999 RMK A01 T00730012  RH  066%=      5-min Rain = 0
KAMH 181455Z 27009KT 08/01 A2999 RMK A01 T00760010  RH  064%=      5-min Rain = 0
KAMH 181500Z 26008KT 08/01 A2999 RMK A01 T00780010  RH  063%=      5-min Rain = 0
KAMH 181505Z 26006KT 08/01 A2999 RMK A01 T00810011  RH  062%=      5-min Rain = 0
KAMH 181510Z 26006KT 08/01 A2999 RMK A01 T00800011  RH  062%=      5-min Rain = 0
KAMH 181515Z 26007KT 08/01 A2999 RMK A01 T00820011  RH  061%=      5-min Rain = 0
KAMH 181520Z 28006KT 09/01 A2999 RMK A01 T00850013  RH  061%=      5-min Rain = 0
KAMH 181525Z 29005KT 09/02 A2999 RMK A01 T00920015  RH  059%=      5-min Rain = 0
KAMH 181530Z 29007KT 10/01 A2999 RMK A01 T00970012  RH  056%=      5-min Rain = 0
KAMH 181535Z 28010KT 10/01 A2999 RMK A01 T01040006  RH  051%=      5-min Rain = 0
KAMH 181540Z 28011KT 11/00 A2999 RMK A01 T01060001  RH  049%=      5-min Rain = 0
KAMH 181545Z 28009KT 11/00 A2999 RMK A01 T01100003  RH  048%=      5-min Rain = 0
KAMH 181550Z 27008KT 11/00 A2999 RMK A01 T01120000  RH  047%=      5-min Rain = 0
KAMH 181555Z 27008KT 12/00 A2999 RMK A01 T01170001  RH  045%=      5-min Rain = 0
KAMH 181600Z 27009KT 12/M00 A2999 RMK A01 T01221002  RH  043%=      5-min Rain = 0
KAMH 181605Z 28011KT 13/M01 A30 RMK A01 T01251006  RH  041%=      5-min Rain = 0
KAMH 181610Z 29011KT 13/M01 A30 RMK A01 T01281009  RH  039%=      5-min Rain = 0
KAMH 181615Z 30012KT 13/M01 A30 RMK A01 T01281012  RH  038%=      5-min Rain = 0
KAMH 181620Z 30012KT 13/M01 A2999 RMK A01 T01301012  RH  038%=      5-min Rain = 0
KAMH 181625Z 30011KT 13/M01 A30 RMK A01 T01301013  RH  037%=      5-min Rain = 0
KAMH 181630Z 30011KT 13/M01 A30 RMK A01 T01311011  RH  038%=      5-min Rain = 0
KAMH 181635Z 29009KT 13/M01 A2999 RMK A01 T01321008  RH  038%=      5-min Rain = 0
KAMH 181640Z 30008KT 13/M01 A2999 RMK A01 T01341005  RH  039%=      5-min Rain = 0
KAMH 181645Z 30009KT 13/M01 A2999 RMK A01 T01341005  RH  039%=      5-min Rain = 0
KAMH 181650Z 31008KT 13/M00 A2999 RMK A01 T01341003  RH  039%=      5-min Rain = 0
KAMH 181655Z 31008KT 14/M00 A2999 RMK A01 T01391004  RH  038%=      5-min Rain = 0
KAMH 181700Z 31009KT 15/M01 A2999 RMK A01 T01451008  RH  035%=      5-min Rain = 0
KAMH 181705Z 31008KT 15/M01 A2999 RMK A01 T01481011  RH  034%=      5-min Rain = 0
KAMH 181710Z 33009KT 15/M01 A2999 RMK A01 T01511011  RH  033%=      5-min Rain = 0
KAMH 181715Z 30007KT 16/M01 A2998 RMK A01 T01551011  RH  032%=      5-min Rain = 0
KAMH 181720Z 31008KT 16/M01 A2998 RMK A01 T01621010  RH  031%=      5-min Rain = 0
KAMH 181725Z 33007KT 16/M01 A2998 RMK A01 T01641009  RH  031%=      5-min Rain = 0
KAMH 181730Z 32008KT 16/M01 A2998 RMK A01 T01631007  RH  032%=      5-min Rain = 0
KAMH 181735Z 32010KT 17/M01 A2998 RMK A01 T01661005  RH  032%=      5-min Rain = 0
KAMH 181740Z 33009KT 17/M00 A2998 RMK A01 T01691003  RH  031%=      5-min Rain = 0
KAMH 181745Z 34010KT 17/M00 A2998 RMK A01 T01731001  RH  031%=      5-min Rain = 0
KAMH 181750Z 33009G14KT 17/M01 A2997 RMK A01 T01741005  RH  030%=      5-min Rain = 0
KAMH 181755Z 34009KT 18/M00 A2997 RMK A01 T01761004  RH  030%=      5-min Rain = 0
KAMH 181800Z 33009KT 18/M00 A2997 RMK A01 T01781003  RH  030%=      5-min Rain = 0
KAMH 181805Z 33010KT 18/M00 A2996 RMK A01 T01811001  RH  029%=      5-min Rain = 0
KAMH 181810Z 33010KT 18/M00 A2996 RMK A01 T01811001  RH  030%=      5-min Rain = 0
KAMH 181815Z 33009KT 18/00 A2996 RMK A01 T01830000  RH  029%=      5-min Rain = 0
KAMH 181820Z 33009KT 19/00 A2996 RMK A01 T01860002  RH  029%=      5-min Rain = 0
KAMH 181825Z 33009KT 19/00 A2995 RMK A01 T01900003  RH  029%=      5-min Rain = 0
KAMH 181830Z 35008KT 19/00 A2995 RMK A01 T01920002  RH  028%=      5-min Rain = 0
KAMH 181835Z 35010KT 20/M00 A2995 RMK A01 T01951001  RH  027%=      5-min Rain = 0
KAMH 181840Z 35010KT 19/00 A2994 RMK A01 T01940003  RH  028%=      5-min Rain = 0
KAMH 181845Z 35009KT 20/01 A2994 RMK A01 T01970006  RH  028%=      5-min Rain = 0
KAMH 181850Z 34008KT 20/01 A2994 RMK A01 T01990010  RH  029%=      5-min Rain = 0
KAMH 181855Z 33008KT 20/01 A2994 RMK A01 T01990008  RH  028%=      5-min Rain = 0
KAMH 181900Z 34006KT 20/01 A2993 RMK A01 T02030011  RH  028%=      5-min Rain = 0
KAMH 181905Z 35008KT 20/01 A2993 RMK A01 T02020006  RH  027%=      5-min Rain = 0
KAMH 181910Z 00007KT 20/01 A2993 RMK A01 T02030009  RH  028%=      5-min Rain = 0
KAMH 181915Z 36008KT 21/01 A2993 RMK A01 T02090010  RH  027%=      5-min Rain = 0
KAMH 181920Z 35009KT 21/01 A2992 RMK A01 T02110009  RH  027%=      5-min Rain = 0
KAMH 181925Z 36009KT 21/01 A2992 RMK A01 T02130007  RH  026%=      5-min Rain = 0
KAMH 181930Z 35008KT 22/01 A2992 RMK A01 T02150006  RH  025%=      5-min Rain = 0
KAMH 181935Z 36009KT 22/01 A2992 RMK A01 T02170007  RH  025%=      5-min Rain = 0
KAMH 181940Z 36009KT 22/01 A2992 RMK A01 T02200009  RH  025%=      5-min Rain = 0
KAMH 181945Z 35009KT 22/01 A2991 RMK A01 T02200009  RH  025%=      5-min Rain = 0
KAMH 181950Z 35009G14KT 22/01 A2991 RMK A01 T02230011  RH  025%=      5-min Rain = 0
KAMH 181955Z 36010G15KT 23/01 A2991 RMK A01 T02260009  RH  024%=      5-min Rain = 0
KAMH 182000Z 36011KT 23/00 A2991 RMK A01 T02260003  RH  023%=      5-min Rain = 0
KAMH 182005Z 00009G15KT 23/01 A2991 RMK A01 T02270007  RH  024%=      5-min Rain = 0
KAMH 182010Z 02012KT 23/00 A2991 RMK A01 T02280004  RH  023%=      5-min Rain = 0
KAMH 182015Z 00009KT 23/00 A2991 RMK A01 T02290002  RH  022%=      5-min Rain = 0
KAMH 182020Z 01010G15KT 23/M00 A2991 RMK A01 T02301002  RH  022%=      5-min Rain = 0
KAMH 182025Z 00009KT 23/00 A2991 RMK A01 T02300000  RH  022%=      5-min Rain = 0
KAMH 182030Z 00010KT 23/00 A2991 RMK A01 T02270000  RH  023%=      5-min Rain = 0
KAMH 182035Z 36010KT 23/00 A2991 RMK A01 T02270002  RH  023%=      5-min Rain = 0
KAMH 182040Z 35010KT 23/01 A2991 RMK A01 T02290006  RH  023%=      5-min Rain = 0
KAMH 182045Z 35009KT 23/00 A2991 RMK A01 T02290002  RH  023%=      5-min Rain = 0
KAMH 182050Z 35011KT 23/01 A2991 RMK A01 T02280008  RH  024%=      5-min Rain = 0
KAMH 182055Z 01010G15KT 23/M00 A2992 RMK A01 T02291001  RH  022%=      5-min Rain = 0
KAMH 182100Z 36011KT 23/M00 A2992 RMK A01 T02281003  RH  022%=      5-min Rain = 0
KAMH 182105Z 35010KT 23/M00 A2992 RMK A01 T02281002  RH  022%=      5-min Rain = 0
KAMH 182110Z 00011KT 23/M00 A2992 RMK A01 T02261001  RH  022%=      5-min Rain = 0
KAMH 182115Z 02010KT 23/M01 A2991 RMK A01 T02271007  RH  021%=      5-min Rain = 0
KAMH 182120Z 00010G15KT 23/M00 A2992 RMK A01 T02271004  RH  022%=      5-min Rain = 0
KAMH 182125Z 00008KT 23/M01 A2992 RMK A01 T02281007  RH  021%=      5-min Rain = 0
KAMH 182130Z 00008KT 23/M00 A2992 RMK A01 T02271004  RH  022%=      5-min Rain = 0
KAMH 182135Z 01009KT 23/M01 A2992 RMK A01 T02281005  RH  021%=      5-min Rain = 0
KAMH 182140Z 01009KT 23/M01 A2992 RMK A01 T02271007  RH  021%=      5-min Rain = 0
KAMH 182145Z 01009KT 23/M01 A2992 RMK A01 T02301008  RH  021%=      5-min Rain = 0
KAMH 182150Z 01009KT 23/M01 A2992 RMK A01 T02291008  RH  021%=      5-min Rain = 0
KAMH 182155Z 03010KT 23/M01 A2992 RMK A01 T02311011  RH  020%=      5-min Rain = 0
KAMH 182200Z 02009KT 23/M02 A2992 RMK A01 T02281016  RH  020%=      5-min Rain = 0
KAMH 182205Z 02009KT 23/M02 A2992 RMK A01 T02281020  RH  019%=      5-min Rain = 0
KAMH 182210Z 03009KT 23/M02 A2992 RMK A01 T02281024  RH  019%=      5-min Rain = 0
KAMH 182215Z 03009KT 23/M02 A2992 RMK A01 T02281024  RH  019%=      5-min Rain = 0
KAMH 182220Z 03009KT 23/M02 A2992 RMK A01 T02281022  RH  019%=      5-min Rain = 0
KAMH 182225Z 03010KT 23/M02 A2992 RMK A01 T02261021  RH  019%=      5-min Rain = 0
KAMH 182230Z 03009KT 22/M02 A2992 RMK A01 T02241019  RH  020%=      5-min Rain = 0
KAMH 182235Z 04007KT 22/M02 A2992 RMK A01 T02241018  RH  020%=      5-min Rain = 0
KAMH 182240Z 04007KT 22/M02 A2992 RMK A01 T02221015  RH  021%=      5-min Rain = 0
KAMH 182245Z 04006KT 22/M01 A2992 RMK A01 T02201014  RH  021%=      5-min Rain = 0
KAMH 182250Z 04007KT 22/M02 A2992 RMK A01 T02191016  RH  021%=      5-min Rain = 0
KAMH 182255Z 04007KT 22/M02 A2992 RMK A01 T02171018  RH  021%=      5-min Rain = 0
KAMH 182300Z 03006KT 22/M02 A2993 RMK A01 T02151018  RH  021%=      5-min Rain = 0
KAMH 182305Z 03005KT 21/M02 A2993 RMK A01 T02111016  RH  022%=      5-min Rain = 0
KAMH 182310Z 03004KT 21/M01 A2993 RMK A01 T02071014  RH  023%=      5-min Rain = 0
KAMH 182315Z 03005KT 20/M01 A2993 RMK A01 T02031013  RH  023%=      5-min Rain = 0
KAMH 182320Z 03007KT 20/M01 A2993 RMK A01 T01991012  RH  024%=      5-min Rain = 0
KAMH 182325Z 03007KT 19/M01 A2993 RMK A01 T01931012  RH  025%=      5-min Rain = 0
KAMH 182330Z 03007KT 19/M01 A2993 RMK A01 T01881011  RH  026%=      5-min Rain = 0
KAMH 182335Z 03007KT 18/M01 A2993 RMK A01 T01841011  RH  027%=      5-min Rain = 0
KAMH 182340Z 04007KT 18/M01 A2993 RMK A01 T01791012  RH  028%=      5-min Rain = 0
KAMH 182345Z 04006KT 17/M01 A2994 RMK A01 T01741012  RH  028%=      5-min Rain = 0
KAMH 182350Z 04006KT 17/M01 A2994 RMK A01 T01701013  RH  029%=      5-min Rain = 0
KAMH 182355Z 04006KT 17/M01 A2994 RMK A01 T01701014  RH  029%=      5-min Rain = 0
KAMH 190000Z 04007KT 17/M02 A2994 RMK A01 T01671015  RH  029%=      5-min Rain = 0
KAMH 190005Z 03007KT 16/M02 A2994 RMK A01 T01641015  RH  030%=      5-min Rain = 0
KAMH 190010Z 03008KT 17/M02 A2995 RMK A01 T01671015  RH  029%=      5-min Rain = 0
KAMH 190015Z 03007KT 17/M02 A2995 RMK A01 T01681017  RH  028%=      5-min Rain = 0
KAMH 190020Z 03007KT 17/M02 A2995 RMK A01 T01691017  RH  028%=      5-min Rain = 0
KAMH 190025Z 03008KT 17/M02 A2995 RMK A01 T01681015  RH  029%=      5-min Rain = 0
KAMH 190030Z 03008KT 17/M01 A2995 RMK A01 T01681014  RH  029%=      5-min Rain = 0
KAMH 190035Z 03008KT 17/M02 A2996 RMK A01 T01681016  RH  029%=      5-min Rain = 0
KAMH 190040Z 03008KT 17/M02 A2996 RMK A01 T01681016  RH  029%=      5-min Rain = 0
KAMH 190045Z 03008KT 17/M02 A2996 RMK A01 T01671015  RH  029%=      5-min Rain = 0
KAMH 190050Z 03008KT 16/M01 A2997 RMK A01 T01611014  RH  030%=      5-min Rain = 0
KAMH 190055Z 03007KT 16/M01 A2997 RMK A01 T01551012  RH  032%=      5-min Rain = 0
KAMH 190100Z 04007KT 15/M01 A2997 RMK A01 T01511012  RH  033%=      5-min Rain = 0
KAMH 190105Z 04007KT 15/M01 A2997 RMK A01 T01501013  RH  033%=      5-min Rain = 0
KAMH 190110Z 04008KT 15/M02 A2997 RMK A01 T01481015  RH  033%=      5-min Rain = 0
KAMH 190115Z 04007KT 14/M02 A2997 RMK A01 T01431016  RH  034%=      5-min Rain = 0
KAMH 190120Z 04007KT 14/M02 A2998 RMK A01 T01391017  RH  034%=      5-min Rain = 0
KAMH 190125Z 04007KT 14/M02 A2998 RMK A01 T01381017  RH  034%=      5-min Rain = 0
KAMH 190130Z 04006KT 14/M02 A2998 RMK A01 T01361018  RH  035%=      5-min Rain = 0
KAMH 190135Z 04006KT 13/M02 A2998 RMK A01 T01331017  RH  036%=      5-min Rain = 0
KAMH 190140Z 04007KT 13/M02 A2998 RMK A01 T01311018  RH  036%=      5-min Rain = 0
KAMH 190145Z 04007KT 13/M02 A2998 RMK A01 T01301018  RH  036%=      5-min Rain = 0
KAMH 190150Z 04006KT 13/M02 A2998 RMK A01 T01301019  RH  036%=      5-min Rain = 0
KAMH 190155Z 04006KT 13/M02 A2998 RMK A01 T01271020  RH  036%=      5-min Rain = 0
KAMH 190200Z 07004KT 12/M02 A2998 RMK A01 T01161021  RH  039%=      5-min Rain = 0
KAMH 190205Z 06003KT 10/M02 A2998 RMK A01 T01031020  RH  042%=      5-min Rain = 0
KAMH 190210Z 08003KT 10/M02 A2999 RMK A01 T01041017  RH  043%=      5-min Rain = 0
KAMH 190215Z 07004KT 11/M02 A2999 RMK A01 T01051019  RH  042%=      5-min Rain = 0
KAMH 190220Z 06004KT 11/M02 A2999 RMK A01 T01071019  RH  041%=      5-min Rain = 0
KAMH 190225Z 06004KT 11/M02 A2999 RMK A01 T01101020  RH  041%=      5-min Rain = 0
KAMH 190230Z 07005KT 11/M02 A2999 RMK A01 T01091021  RH  041%=      5-min Rain = 0
KAMH 190235Z 08004KT 11/M02 A2999 RMK A01 T01061021  RH  041%=      5-min Rain = 0
KAMH 190240Z 07004KT 10/M02 A2999 RMK A01 T01041021  RH  042%=      5-min Rain = 0
KAMH 190245Z 07004KT 10/M02 A2999 RMK A01 T01041023  RH  041%=      5-min Rain = 0
KAMH 190250Z 08004KT 11/M02 A2999 RMK A01 T01061024  RH  041%=      5-min Rain = 0
KAMH 190255Z 08004KT 11/M03 A2999 RMK A01 T01071025  RH  040%=      5-min Rain = 0
KAMH 190300Z 07004KT 11/M03 A2999 RMK A01 T01051027  RH  040%=      5-min Rain = 0
KAMH 190305Z 07005KT 10/M03 A2999 RMK A01 T01021026  RH  041%=      5-min Rain = 0
KAMH 190310Z 08004KT 10/M03 A2999 RMK A01 T01001027  RH  041%=      5-min Rain = 0
KAMH 190315Z 08004KT 10/M03 A2999 RMK A01 T00971027  RH  042%=      5-min Rain = 0
KAMH 190320Z 10003KT 10/M03 A2999 RMK A01 T00951027  RH  043%=      5-min Rain = 0
KAMH 190325Z 10004KT 10/M03 A2999 RMK A01 T00981026  RH  042%=      5-min Rain = 0
KAMH 190330Z 09004KT 10/M03 A2999 RMK A01 T00991026  RH  042%=      5-min Rain = 0
KAMH 190335Z 09003KT 10/M03 A2999 RMK A01 T00961027  RH  042%=      5-min Rain = 0
KAMH 190340Z 10003KT 09/M03 A2999 RMK A01 T00941026  RH  043%=      5-min Rain = 0
KAMH 190345Z 11003KT 09/M03 A2999 RMK A01 T00941026  RH  043%=      5-min Rain = 0
KAMH 190350Z 11004KT 10/M03 A2999 RMK A01 T00971025  RH  043%=      5-min Rain = 0
KAMH 190355Z 12004KT 10/M02 A2999 RMK A01 T00991024  RH  042%=      5-min Rain = 0
KAMH 190400Z 13003KT 10/M02 A2998 RMK A01 T00981023  RH  043%=      5-min Rain = 0
KAMH 190405Z 14004KT 10/M02 A2998 RMK A01 T01001023  RH  043%=      5-min Rain = 0
KAMH 190410Z 14004KT 10/M02 A2999 RMK A01 T00981023  RH  043%=      5-min Rain = 0
KAMH 190415Z 13003KT 10/M02 A2999 RMK A01 T00961022  RH  044%=      5-min Rain = 0
KAMH 190420Z 13004KT 10/M02 A2999 RMK A01 T00951022  RH  044%=      5-min Rain = 0
KAMH 190425Z 13004KT 09/M02 A2999 RMK A01 T00941024  RH  044%=      5-min Rain = 0
KAMH 190430Z 13004KT 09/M02 A2998 RMK A01 T00931023  RH  044%=      5-min Rain = 0
KAMH 190435Z 14004KT 09/M03 A2999 RMK A01 T00911025  RH  044%=      5-min Rain = 0
KAMH 190440Z 16004KT 09/M03 A2999 RMK A01 T00871025  RH  046%=      5-min Rain = 0
KAMH 190445Z 16003KT 09/M02 A2999 RMK A01 T00851023  RH  047%=      5-min Rain = 0
KAMH 190450Z 18003KT 09/M02 A2999 RMK A01 T00871020  RH  047%=      5-min Rain = 0
KAMH 190455Z 17004KT 09/M02 A2999 RMK A01 T00921019  RH  046%=      5-min Rain = 0
KAMH 190500Z 17005KT 09/M02 A2999 RMK A01 T00921020  RH  046%=      5-min Rain = 0
KAMH 190505Z 18004KT 09/M02 A2999 RMK A01 T00901021  RH  046%=      5-min Rain = 0
KAMH 190510Z 18005KT 09/M02 A30 RMK A01 T00921018  RH  047%=      5-min Rain = 0
KAMH 190515Z 17005KT 10/M02 A30 RMK A01 T00951015  RH  046%=      5-min Rain = 0
KAMH 190520Z 18005KT 09/M02 A30 RMK A01 T00881021  RH  047%=      5-min Rain = 0
KAMH 190525Z 19004KT 08/M02 A30 RMK A01 T00791021  RH  049%=      5-min Rain = 0
KAMH 190530Z 19004KT 09/M02 A2999 RMK A01 T00851016  RH  049%=      5-min Rain = 0
KAMH 190535Z 19004KT 09/M02 A30 RMK A01 T00871015  RH  049%=      5-min Rain = 0
KAMH 190540Z 21004KT 09/M02 A30 RMK A01 T00861015  RH  049%=      5-min Rain = 0
KAMH 190545Z 21004KT 08/M02 A30 RMK A01 T00831019  RH  049%=      5-min Rain = 0
KAMH 190550Z 20004KT 08/M02 A30 RMK A01 T00771019  RH  051%=      5-min Rain = 0
KAMH 190555Z 19002KT 07/M02 A30 RMK A01 T00741021  RH  051%=      5-min Rain = 0

Page generated in 0.0093 seconds.